Bradenton Beach, FL

10:31 AM EDT on August 28, 2015 (GMT -0400)
Anna Maria Island | | Change Station
CLOSE
Current Station
Personal Weather Station
Location: Anna Maria, FL
Elevation: 2 ft
Nearby Weather Stations

Elev 2 ft 27.53 °N, 82.73 °W | Updated 3 seconds ago

Partly Cloudy
Partly Cloudy
83.3 °F
Feels Like 96 °F
N
6.7
Wind Variable Wind from ESE
Gusts 7.4 mph

Today
High -- | Low -- °F
--% Chance of Precip.
Yesterday
High -- | Low -- °F
Precip. -- in
7:07 AM 7:55 PM
Waxing Gibbous, 98% visible
Pressure 30.00 in
Visibility 10.0 miles
Clouds Clear
Heat Index 96 °F
Dew Point 81 °F
Humidity 92%
Rainfall 0.00 in
Snow Depth Not available.
UV 2.0 out of 12
Pollen 3.60 out of 12
Air Quality Not available.
Flu Activity Not available.
METAR KSRQ 281353Z 11007KT 10SM CLR 28/24 A3000 RMK AO2 LTG DSNT SW SLP158 T02780239
Pressure 30.00 in
Visibility 10.0 miles
Clouds Clear
Heat Index 96 °F
Dew Point 81 °F
Humidity 92%
Rainfall 0.00 in
Snow Depth Not available.
UV 2.0 out of 12
Pollen 3.60 out of 12
Air Quality Not available.
Flu Activity Not available.
METAR KSRQ 281353Z 11007KT 10SM CLR 28/24 A3000 RMK AO2 LTG DSNT SW SLP158 T02780239
Tropical Storm Erika remains unorganized as it travels through the northeast Caribbean Sea. Puerto Rico could receive over a foot of rain from Erika, which could help the ongoing drought but could also produce dangerous mudslides. Erika is not forecast to reach hurricane strength until Monday when it curves northward along the east coast of Florida. Follow the live blog

10-Day Weather Forecast

×

Almanac

Astronomy

Aug. 28, 2015 Rise Set
Actual Time
Civil Twilight
Nautical Twilight
Astronomical Twilight
Moon
Length of Visible Light
Length of Day
Tomorrow will be .
, % of the Moon is Illuminated

Today's Extremes

State Highs State Lows

Community

WunderPhotos

Upload Photos

1,850,386 photos uploaded!

WunderBlogs® & News

Nearby

Air Quality

  Air Quality AQ Index Pollutant
Not available.

Snow Depth

Station Depth Elevation

Earthquake Activity

City Distance Mag. Time & Date
Minimum magnitude displayed is 2.5.

Coastal Water Temperatures

Place Temperature

Stations

Nearby Weather Stations

Station Location Temp. Windchill Dew Point Humidity Wind Precip. Elev Updated Type